createdAt,value
2022-10-11T00:00:40.551Z,18.70
2022-10-11T00:03:48.758Z,22.80
2022-10-11T00:06:56.079Z,16.80
2022-10-11T00:10:03.670Z,23.10
2022-10-11T00:13:11.691Z,16.70
2022-10-11T00:16:19.451Z,14.30
2022-10-11T00:19:27.060Z,18.60
2022-10-11T00:22:35.092Z,16.20
2022-10-11T00:25:42.406Z,20.90
2022-10-11T00:28:50.465Z,23.40
2022-10-11T00:31:58.807Z,14.60
2022-10-11T00:35:06.115Z,21.30
2022-10-11T00:38:14.245Z,15.40
2022-10-11T00:41:16.537Z,23.70
2022-10-11T00:44:24.094Z,25.10
2022-10-11T00:47:32.596Z,24.70
2022-10-11T00:50:40.493Z,18.20
2022-10-11T00:53:48.756Z,19.50
2022-10-11T00:56:56.248Z,18.00
2022-10-11T01:00:04.262Z,17.60
2022-10-11T01:03:12.305Z,27.00
2022-10-11T01:06:20.361Z,18.20
2022-10-11T01:09:28.779Z,16.70
2022-10-11T01:12:36.287Z,25.50
2022-10-11T01:15:44.643Z,19.50
2022-10-11T01:18:53.144Z,16.30
2022-10-11T01:22:00.717Z,20.00
2022-10-11T01:25:09.265Z,18.30
2022-10-11T01:28:16.857Z,22.80
2022-10-11T01:31:25.217Z,19.70
2022-10-11T01:34:33.097Z,19.60
2022-10-11T01:37:40.932Z,18.80
2022-10-11T01:40:49.436Z,15.40
2022-10-11T01:43:57.582Z,17.90
2022-10-11T01:47:05.523Z,22.10
2022-10-11T01:50:13.468Z,19.90
2022-10-11T01:53:21.591Z,22.10
2022-10-11T01:56:29.641Z,20.60
2022-10-11T01:59:37.942Z,17.60
2022-10-11T02:02:45.553Z,21.30
2022-10-11T02:05:53.933Z,25.30
2022-10-11T02:09:05.763Z,18.80
2022-10-11T02:12:05.223Z,18.30
2022-10-11T02:15:13.606Z,21.50
2022-10-11T02:18:21.102Z,20.20
2022-10-11T02:21:29.437Z,17.50
2022-10-11T02:24:37.415Z,19.90
2022-10-11T02:27:45.315Z,21.90
2022-10-11T02:30:53.140Z,19.00
2022-10-11T02:34:01.545Z,24.10
2022-10-11T02:37:09.649Z,24.90
2022-10-11T02:40:17.669Z,24.20
2022-10-11T02:43:25.910Z,29.40
2022-10-11T02:46:33.782Z,17.20
2022-10-11T02:49:42.100Z,19.00
2022-10-11T02:52:49.613Z,18.70
2022-10-11T02:55:58.252Z,20.40
2022-10-11T02:59:06.703Z,23.70
2022-10-11T03:02:14.133Z,15.70
2022-10-11T03:05:22.333Z,28.90
2022-10-11T03:08:29.814Z,17.50
2022-10-11T03:11:38.373Z,21.40
2022-10-11T03:14:46.242Z,24.60
2022-10-11T03:17:54.194Z,20.60
2022-10-11T03:21:02.646Z,31.90
2022-10-11T03:24:10.834Z,25.30
2022-10-11T03:27:18.897Z,18.20
2022-10-11T03:30:27.067Z,13.00
2022-10-11T03:33:35.014Z,22.40
2022-10-11T03:36:43.306Z,20.40
2022-10-11T03:39:51.190Z,19.30
2022-10-11T03:42:59.131Z,21.60
2022-10-11T03:46:07.711Z,23.70
2022-10-11T03:49:16.574Z,28.80
2022-10-11T03:52:23.971Z,26.00
2022-10-11T03:55:32.579Z,18.80
2022-10-11T03:58:40.502Z,25.10
2022-10-11T04:01:48.586Z,19.10
2022-10-11T04:04:56.943Z,22.30
2022-10-11T04:08:08.438Z,17.70
2022-10-11T04:11:08.776Z,21.90
2022-10-11T04:14:16.722Z,22.10
2022-10-11T04:17:24.902Z,20.00
2022-10-11T04:20:33.356Z,16.50
2022-10-11T04:23:41.026Z,23.30
2022-10-11T04:26:49.465Z,25.50
2022-10-11T04:29:57.896Z,19.90
2022-10-11T04:33:05.520Z,26.30
2022-10-11T04:36:13.972Z,16.40
2022-10-11T04:39:21.481Z,17.50
2022-10-11T04:42:29.929Z,19.10
2022-10-11T04:45:38.145Z,28.10
2022-10-11T04:48:45.631Z,25.60
2022-10-11T04:51:53.541Z,22.40
2022-10-11T04:55:01.490Z,15.60
2022-10-11T04:58:09.405Z,24.30
2022-10-11T05:01:17.660Z,21.10
2022-10-11T05:04:25.190Z,23.80
2022-10-11T05:07:33.518Z,17.60
2022-10-11T05:10:41.453Z,24.80
2022-10-11T05:13:49.344Z,24.40
2022-10-11T05:16:57.826Z,18.70
2022-10-11T05:20:05.830Z,26.40
2022-10-11T05:23:13.750Z,31.40
2022-10-11T05:26:21.447Z,18.80
2022-10-11T05:29:29.147Z,16.00
2022-10-11T05:32:37.460Z,19.60
2022-10-11T05:35:45.489Z,19.70
2022-10-11T05:38:53.688Z,14.60
2022-10-11T05:42:04.559Z,20.60
2022-10-11T05:45:03.359Z,14.40
2022-10-11T05:48:11.908Z,18.00
2022-10-11T05:51:19.896Z,16.90
2022-10-11T05:54:27.836Z,22.80
2022-10-11T05:57:36.236Z,14.60
2022-10-11T06:00:44.184Z,17.10
2022-10-11T06:03:52.443Z,21.40
2022-10-11T06:07:00.421Z,22.20
2022-10-11T06:10:08.403Z,24.00
2022-10-11T06:13:17.035Z,27.40
2022-10-11T06:16:25.245Z,21.90
2022-10-11T06:19:33.126Z,28.40
2022-10-11T06:22:41.394Z,28.40
2022-10-11T06:25:49.294Z,25.80
2022-10-11T06:28:57.382Z,23.20
2022-10-11T06:32:05.326Z,19.00
2022-10-11T06:35:13.330Z,19.90
2022-10-11T06:38:22.007Z,30.80
2022-10-11T06:41:30.236Z,20.90
2022-10-11T06:44:38.554Z,24.80
2022-10-11T06:47:47.137Z,19.40
2022-10-11T06:51:00.006Z,26.30
2022-10-11T06:53:58.005Z,24.60
2022-10-11T06:57:06.404Z,28.90
2022-10-11T07:00:14.536Z,26.50
2022-10-11T07:03:23.183Z,21.10
2022-10-11T07:06:31.766Z,25.80
2022-10-11T07:09:39.911Z,25.90
2022-10-11T07:12:48.224Z,29.40
2022-10-11T07:15:56.923Z,21.20
2022-10-11T07:19:04.791Z,21.10
2022-10-11T07:22:13.366Z,21.40
2022-10-11T07:25:21.774Z,21.90
2022-10-11T07:28:30.449Z,26.30
2022-10-11T07:31:39.207Z,24.20
2022-10-11T07:34:47.525Z,25.50
2022-10-11T07:37:55.423Z,23.90
2022-10-11T07:41:03.928Z,26.50
2022-10-11T07:44:11.401Z,22.80
2022-10-11T07:47:19.910Z,24.20
2022-10-11T07:50:28.181Z,28.50
2022-10-11T07:53:36.281Z,28.10
2022-10-11T07:56:44.705Z,26.20
2022-10-11T07:59:52.220Z,20.90
2022-10-11T08:03:00.526Z,19.00
2022-10-11T08:06:09.637Z,24.40
2022-10-11T08:09:17.544Z,21.40
2022-10-11T08:12:26.055Z,17.90
2022-10-11T08:15:34.038Z,18.90
2022-10-11T08:18:41.974Z,22.40
2022-10-11T08:21:50.534Z,17.30
2022-10-11T08:24:58.077Z,15.30
2022-10-11T08:28:06.590Z,23.80
2022-10-11T08:31:15.549Z,24.50
2022-10-11T08:34:23.200Z,15.60
2022-10-11T08:37:31.990Z,22.00
2022-10-11T08:40:40.451Z,19.40
2022-10-11T08:43:48.932Z,20.30
2022-10-11T08:47:00.436Z,16.20
2022-10-11T08:49:57.521Z,16.70
2022-10-11T08:53:05.746Z,17.30
2022-10-11T08:56:13.559Z,12.40
2022-10-11T08:59:21.535Z,19.20
2022-10-11T09:02:49.191Z,11.50
2022-10-11T09:05:35.077Z,14.40
2022-10-11T09:08:43.999Z,13.90
2022-10-11T09:11:52.385Z,14.00
2022-10-11T09:15:00.979Z,15.80
2022-10-11T09:18:09.439Z,14.70
2022-10-11T09:21:18.480Z,10.70
2022-10-11T09:24:26.974Z,12.90
2022-10-11T09:27:57.718Z,12.20
2022-10-11T09:30:41.210Z,12.90
2022-10-11T09:33:49.812Z,12.90
2022-10-11T09:36:58.673Z,14.50
2022-10-11T09:40:06.661Z,12.00
2022-10-11T09:43:15.509Z,10.90
2022-10-11T09:46:24.275Z,16.90
2022-10-11T09:49:32.261Z,11.80
2022-10-11T09:52:41.187Z,11.50
2022-10-11T09:55:49.619Z,13.50
2022-10-11T09:58:57.956Z,11.90
2022-10-11T10:02:06.831Z,11.50
2022-10-11T10:05:14.717Z,10.10
2022-10-11T10:08:23.987Z,10.60
2022-10-11T10:11:32.276Z,12.80
2022-10-11T10:14:40.492Z,9.50
2022-10-11T10:17:49.325Z,13.80
2022-10-11T10:20:57.194Z,8.40
2022-10-11T10:24:05.844Z,12.40
2022-10-11T10:27:14.574Z,8.50
2022-10-11T10:30:22.549Z,12.00
2022-10-11T10:33:31.491Z,10.00
2022-10-11T10:36:39.396Z,11.90
2022-10-11T10:39:48.117Z,12.10
2022-10-11T10:42:56.658Z,13.30
2022-10-11T10:46:05.584Z,12.80
2022-10-11T10:52:19.940Z,7.30
2022-10-11T10:55:28.284Z,9.10
2022-10-11T10:58:36.683Z,9.70
2022-10-11T11:01:45.160Z,6.80
2022-10-11T11:04:53.488Z,9.50
2022-10-11T11:08:02.118Z,7.00
2022-10-11T11:11:09.957Z,4.90
2022-10-11T11:14:19.008Z,10.80
2022-10-11T11:17:27.918Z,16.20
2022-10-11T11:20:35.885Z,9.30
2022-10-11T11:23:44.643Z,8.10
2022-10-11T11:26:52.692Z,7.90
2022-10-11T11:30:01.506Z,7.20
2022-10-11T11:33:10.300Z,12.10
2022-10-11T11:36:18.828Z,8.10
2022-10-11T11:39:27.644Z,6.20
2022-10-11T11:42:35.724Z,5.20
2022-10-11T11:45:44.888Z,11.80
2022-10-11T11:48:53.553Z,6.90
2022-10-11T11:52:01.795Z,4.10
2022-10-11T11:55:10.597Z,5.30
2022-10-11T11:58:19.076Z,8.40
2022-10-11T12:01:31.066Z,7.90
2022-10-11T12:04:31.576Z,6.90
2022-10-11T12:07:40.165Z,5.80
2022-10-11T12:10:48.443Z,6.80
2022-10-11T12:13:57.215Z,11.00
2022-10-11T12:17:05.120Z,8.60
2022-10-11T12:20:13.026Z,5.30
2022-10-11T12:23:21.141Z,12.20
2022-10-11T12:26:29.229Z,7.40
2022-10-11T12:29:37.712Z,8.00
2022-10-11T12:32:45.905Z,4.60
2022-10-11T12:35:54.513Z,6.50
2022-10-11T12:39:03.468Z,7.70
2022-10-11T12:42:11.526Z,5.80
2022-10-11T12:45:20.487Z,5.70
2022-10-11T12:48:33.947Z,5.40
2022-10-11T12:51:33.380Z,6.90
2022-10-11T12:54:42.356Z,6.70
2022-10-11T12:57:50.252Z,7.10
2022-10-11T13:00:59.434Z,4.40
2022-10-11T13:04:07.428Z,5.60
2022-10-11T13:07:16.344Z,5.50
2022-10-11T13:10:24.776Z,5.30
2022-10-11T13:13:33.268Z,8.60
2022-10-11T13:16:42.083Z,6.30
2022-10-11T13:19:50.556Z,5.40
2022-10-11T13:22:58.973Z,7.60
2022-10-11T13:26:07.163Z,4.70
2022-10-11T13:29:15.734Z,3.60
2022-10-11T13:32:23.934Z,3.80
2022-10-11T13:35:32.550Z,5.20
2022-10-11T13:38:41.068Z,8.70
2022-10-11T13:41:49.711Z,6.40
2022-10-11T13:44:58.531Z,9.90
2022-10-11T13:48:06.616Z,8.10
2022-10-11T13:51:15.335Z,6.60
2022-10-11T13:54:23.437Z,8.00
2022-10-11T13:57:32.406Z,5.90
2022-10-11T14:00:41.150Z,8.10
2022-10-11T14:03:49.084Z,5.40
2022-10-11T14:06:58.011Z,6.60
2022-10-11T14:10:06.105Z,8.30
2022-10-11T14:13:15.377Z,8.80
2022-10-11T14:16:24.317Z,7.50
2022-10-11T14:19:32.292Z,6.70
2022-10-11T14:22:41.105Z,6.50
2022-10-11T14:25:49.725Z,9.10
2022-10-11T14:28:58.265Z,6.60
2022-10-11T14:32:07.204Z,8.00
2022-10-11T14:35:15.218Z,5.90
2022-10-11T14:38:24.029Z,5.90
2022-10-11T14:41:32.537Z,8.20
2022-10-11T14:44:41.045Z,9.70
2022-10-11T14:47:49.838Z,4.90
2022-10-11T14:50:58.270Z,5.90
2022-10-11T14:54:06.796Z,8.60
2022-10-11T14:57:15.176Z,10.30
2022-10-11T15:00:23.750Z,4.60
2022-10-11T15:03:32.813Z,6.30
2022-10-11T15:06:41.200Z,5.10
2022-10-11T15:09:49.615Z,7.50
2022-10-11T15:12:58.244Z,8.50
2022-10-11T15:16:06.973Z,7.30
2022-10-11T15:19:15.793Z,5.20
2022-10-11T15:22:24.096Z,7.00
2022-10-11T15:25:32.075Z,8.40
2022-10-11T15:28:40.051Z,7.80
2022-10-11T15:31:48.406Z,5.10
2022-10-11T15:34:56.398Z,7.90
2022-10-11T15:38:04.573Z,6.70
2022-10-11T15:41:12.868Z,11.50
2022-10-11T15:44:20.781Z,6.00
2022-10-11T15:47:28.589Z,5.90
2022-10-11T15:50:36.848Z,7.30
2022-10-11T15:53:45.182Z,7.10
2022-10-11T15:56:53.795Z,5.00
2022-10-11T16:00:01.908Z,5.50
2022-10-11T16:03:10.620Z,7.70
2022-10-11T16:06:18.844Z,7.70
2022-10-11T16:09:26.807Z,8.20
2022-10-11T16:12:34.430Z,4.50
2022-10-11T16:15:42.860Z,8.80
2022-10-11T16:18:50.881Z,12.00
2022-10-11T16:21:58.675Z,9.60
2022-10-11T16:25:07.072Z,7.00
2022-10-11T16:28:15.109Z,7.10
2022-10-11T16:31:23.385Z,8.40
2022-10-11T16:34:31.765Z,5.60
2022-10-11T16:37:39.396Z,8.10
2022-10-11T16:40:47.917Z,7.70
2022-10-11T16:43:55.886Z,9.70
2022-10-11T16:47:03.607Z,17.00
2022-10-11T16:50:12.048Z,10.80
2022-10-11T16:53:20.479Z,11.40
2022-10-11T16:56:28.749Z,10.80
2022-10-11T16:59:37.001Z,9.50
2022-10-11T17:02:44.846Z,19.50
2022-10-11T17:05:52.824Z,16.70
2022-10-11T17:09:01.142Z,23.70
2022-10-11T17:12:09.104Z,20.00
2022-10-11T17:15:16.894Z,27.80
2022-10-11T17:18:25.040Z,25.40
2022-10-11T17:21:33.166Z,17.40
2022-10-11T17:24:41.136Z,17.10
2022-10-11T17:27:49.120Z,9.10
2022-10-11T17:30:57.530Z,12.90
2022-10-11T17:34:05.527Z,14.40
2022-10-11T17:37:13.383Z,15.90
2022-10-11T17:40:21.413Z,11.90
2022-10-11T17:43:29.253Z,10.10
2022-10-11T17:46:37.392Z,12.00
2022-10-11T17:49:45.705Z,12.80
2022-10-11T17:52:53.875Z,13.60
2022-10-11T17:56:01.738Z,11.90
2022-10-11T17:59:10.040Z,12.80
2022-10-11T18:02:17.697Z,13.90
2022-10-11T18:05:25.836Z,13.10
2022-10-11T18:08:39.186Z,13.60
2022-10-11T18:11:37.278Z,18.00
2022-10-11T18:14:46.014Z,25.60
2022-10-11T18:17:54.437Z,16.90
2022-10-11T18:21:02.004Z,21.00
2022-10-11T18:24:10.541Z,22.40
2022-10-11T18:27:18.830Z,19.60
2022-10-11T18:30:26.468Z,16.50
2022-10-11T18:33:34.814Z,15.80
2022-10-11T18:36:42.723Z,24.40
2022-10-11T18:39:50.742Z,17.90
2022-10-11T18:42:59.251Z,22.60
2022-10-11T18:46:07.222Z,21.50
2022-10-11T18:49:15.203Z,24.10
2022-10-11T18:52:23.518Z,24.60
2022-10-11T18:55:31.459Z,25.40
2022-10-11T18:58:39.467Z,22.60
2022-10-11T19:01:47.587Z,21.30
2022-10-11T19:04:55.968Z,21.00
2022-10-11T19:08:03.916Z,12.20
2022-10-11T19:11:11.898Z,20.00
2022-10-11T19:14:20.426Z,16.90
2022-10-11T19:17:28.437Z,16.60
2022-10-11T19:20:36.416Z,16.70
2022-10-11T19:23:44.647Z,15.60
2022-10-11T19:26:52.540Z,18.90
2022-10-11T19:30:00.542Z,15.00
2022-10-11T19:33:08.787Z,18.40
2022-10-11T19:36:16.323Z,22.30
2022-10-11T19:39:24.595Z,22.00
2022-10-11T19:42:33.442Z,19.10
2022-10-11T19:45:41.233Z,16.80
2022-10-11T19:48:49.406Z,19.00
2022-10-11T19:51:57.409Z,17.10
2022-10-11T19:55:04.805Z,17.10
2022-10-11T19:58:13.084Z,18.50
2022-10-11T20:01:21.133Z,18.10
2022-10-11T20:07:34.445Z,17.00
2022-10-11T20:10:42.535Z,16.90
2022-10-11T20:13:50.576Z,18.90
2022-10-11T20:16:59.453Z,19.60
2022-10-11T20:20:07.561Z,22.00
2022-10-11T20:23:18.152Z,21.10
2022-10-11T20:26:15.867Z,18.60
2022-10-11T20:29:23.650Z,23.80
2022-10-11T20:32:31.898Z,15.30
2022-10-11T20:35:40.254Z,15.50
2022-10-11T20:38:48.850Z,14.60
2022-10-11T20:41:56.676Z,15.50
2022-10-11T20:45:05.357Z,12.60
2022-10-11T20:48:13.944Z,14.20
2022-10-11T20:51:21.883Z,17.10
2022-10-11T20:54:30.566Z,14.40
2022-10-11T20:57:38.606Z,13.40
2022-10-11T21:00:46.219Z,12.80
2022-10-11T21:03:54.387Z,14.60
2022-10-11T21:07:02.227Z,16.00
2022-10-11T21:10:10.197Z,16.60
2022-10-11T21:13:18.499Z,11.70
2022-10-11T21:16:26.476Z,13.60
2022-10-11T21:19:34.610Z,14.70
2022-10-11T21:22:43.150Z,14.70
2022-10-11T21:25:50.921Z,17.90
2022-10-11T21:28:59.569Z,17.10
2022-10-11T21:32:12.147Z,19.70
2022-10-11T21:35:11.473Z,14.00
2022-10-11T21:38:20.041Z,14.20
2022-10-11T21:41:28.075Z,13.00
2022-10-11T21:44:35.653Z,16.30
2022-10-11T21:47:44.021Z,19.20
2022-10-11T21:50:51.694Z,12.40
2022-10-11T21:53:59.501Z,15.90
2022-10-11T21:57:07.805Z,15.60
2022-10-11T22:00:15.414Z,12.80
2022-10-11T22:03:23.347Z,14.90
2022-10-11T22:06:31.798Z,9.10
2022-10-11T22:09:39.342Z,19.20
2022-10-11T22:12:47.287Z,18.10
2022-10-11T22:15:55.188Z,20.90
2022-10-11T22:19:03.104Z,12.40
2022-10-11T22:22:10.949Z,16.00
2022-10-11T22:25:18.952Z,17.10
2022-10-11T22:28:27.109Z,17.10
2022-10-11T22:31:35.013Z,15.90
2022-10-11T22:34:42.698Z,13.90
2022-10-11T22:37:50.361Z,17.60
2022-10-11T22:40:57.722Z,18.30
2022-10-11T22:44:05.843Z,22.40
2022-10-11T22:47:13.712Z,17.40
2022-10-11T22:50:21.612Z,10.80
2022-10-11T22:53:29.883Z,14.10
2022-10-11T22:56:37.795Z,23.00
2022-10-11T22:59:45.595Z,10.90
2022-10-11T23:02:53.865Z,17.00
2022-10-11T23:06:01.365Z,15.10
2022-10-11T23:09:09.614Z,15.10
2022-10-11T23:12:17.693Z,12.00
2022-10-11T23:15:25.041Z,12.30
2022-10-11T23:18:33.137Z,18.80
2022-10-11T23:21:41.500Z,22.80
2022-10-11T23:24:49.044Z,12.90
2022-10-11T23:27:57.226Z,15.70
2022-10-11T23:31:04.960Z,11.80
2022-10-11T23:34:12.442Z,15.80
2022-10-11T23:37:20.641Z,9.50
2022-10-11T23:40:28.788Z,16.30
2022-10-11T23:43:36.843Z,14.60
2022-10-11T23:46:45.948Z,14.50
2022-10-11T23:49:53.865Z,10.90
2022-10-11T23:53:01.991Z,18.30
2022-10-11T23:56:10.531Z,15.20
2022-10-11T23:59:18.586Z,8.90
